createdAt,value
2018-02-07T00:00:11.262Z,0.00
2018-02-07T00:01:11.231Z,0.00
2018-02-07T00:02:11.220Z,0.00
2018-02-07T00:03:32.219Z,0.00
2018-02-07T00:04:32.208Z,0.00
2018-02-07T00:05:11.217Z,0.00
2018-02-07T00:06:11.190Z,0.00
2018-02-07T00:07:11.170Z,0.00
2018-02-07T00:08:32.190Z,0.00
2018-02-07T00:09:32.183Z,0.00
2018-02-07T00:10:11.136Z,0.00
2018-02-07T00:11:11.136Z,0.00
2018-02-07T00:12:11.137Z,0.00
2018-02-07T00:13:32.108Z,0.00
2018-02-07T00:14:32.097Z,0.00
2018-02-07T00:15:11.083Z,0.00
2018-02-07T00:16:11.075Z,0.00
2018-02-07T00:17:11.057Z,0.00
2018-02-07T00:18:32.055Z,0.00
2018-02-07T00:19:32.045Z,0.00
2018-02-07T00:20:11.054Z,0.00
2018-02-07T00:21:11.018Z,0.00
2018-02-07T00:22:11.019Z,0.00
2018-02-07T00:23:32.028Z,0.00
2018-02-07T00:24:31.993Z,0.00
2018-02-07T00:25:10.975Z,0.00
2018-02-07T00:26:10.963Z,0.00
2018-02-07T00:27:10.967Z,0.00
2018-02-07T00:28:31.957Z,0.00
2018-02-07T00:29:31.997Z,0.00
2018-02-07T00:30:10.925Z,0.00
2018-02-07T00:31:10.946Z,0.00
2018-02-07T00:32:10.900Z,0.00
2018-02-07T00:33:31.893Z,0.00
2018-02-07T00:34:31.888Z,0.00
2018-02-07T00:35:10.904Z,0.00
2018-02-07T00:36:10.867Z,0.00
2018-02-07T00:37:10.858Z,0.00
2018-02-07T00:38:31.853Z,0.00
2018-02-07T00:39:31.828Z,0.00
2018-02-07T00:40:10.832Z,0.00
2018-02-07T00:41:10.804Z,0.00
2018-02-07T00:42:10.854Z,0.00
2018-02-07T00:43:31.785Z,0.00
2018-02-07T00:44:31.773Z,0.00
2018-02-07T00:45:10.775Z,0.00
2018-02-07T00:46:10.764Z,0.00
2018-02-07T00:47:10.740Z,0.00
2018-02-07T00:48:31.731Z,0.00
2018-02-07T00:49:31.721Z,0.00
2018-02-07T00:50:10.700Z,0.00
2018-02-07T00:51:10.696Z,0.00
2018-02-07T00:52:10.682Z,0.00
2018-02-07T00:53:31.675Z,0.00
2018-02-07T00:54:31.662Z,0.00
2018-02-07T00:55:10.660Z,0.00
2018-02-07T00:56:10.639Z,0.00
2018-02-07T00:57:10.655Z,0.00
2018-02-07T00:58:31.619Z,0.00
2018-02-07T00:59:31.609Z,0.00
2018-02-07T01:00:10.600Z,0.00
2018-02-07T01:01:10.587Z,0.00
2018-02-07T01:02:10.571Z,0.00
2018-02-07T01:03:31.566Z,0.00
2018-02-07T01:04:31.552Z,0.00
2018-02-07T01:05:10.537Z,0.00
2018-02-07T01:06:10.529Z,0.00
2018-02-07T01:07:10.520Z,0.00
2018-02-07T01:08:31.513Z,0.00
2018-02-07T01:09:31.499Z,0.00
2018-02-07T01:10:10.484Z,0.00
2018-02-07T01:11:10.476Z,0.00
2018-02-07T01:12:10.480Z,0.00
2018-02-07T01:13:31.459Z,0.00
2018-02-07T01:14:31.448Z,0.00
2018-02-07T01:15:10.429Z,0.00
2018-02-07T01:16:10.424Z,0.00
2018-02-07T01:17:10.407Z,0.00
2018-02-07T01:18:31.404Z,0.00
2018-02-07T01:19:31.395Z,0.00
2018-02-07T01:20:10.376Z,0.00
2018-02-07T01:21:10.365Z,0.00
2018-02-07T01:22:10.355Z,0.00
2018-02-07T01:23:31.357Z,0.00
2018-02-07T01:24:31.340Z,0.00
2018-02-07T01:25:10.319Z,0.00
2018-02-07T01:26:10.316Z,0.00
2018-02-07T01:27:10.398Z,0.00
2018-02-07T01:28:31.296Z,0.00
2018-02-07T01:29:31.287Z,0.00
2018-02-07T01:30:10.272Z,0.00
2018-02-07T01:31:10.262Z,0.00
2018-02-07T01:32:11.237Z,0.00
2018-02-07T01:33:31.245Z,0.00
2018-02-07T01:34:31.231Z,0.00
2018-02-07T01:35:10.215Z,0.00
2018-02-07T01:36:10.207Z,0.00
2018-02-07T01:37:10.192Z,0.00
2018-02-07T01:38:31.184Z,0.00
2018-02-07T01:39:31.179Z,0.00
2018-02-07T01:40:10.163Z,0.00
2018-02-07T01:41:10.148Z,0.00
2018-02-07T01:42:10.141Z,0.00
2018-02-07T01:43:31.137Z,0.00
2018-02-07T01:44:31.137Z,0.00
2018-02-07T01:45:10.107Z,0.00
2018-02-07T01:46:10.094Z,0.00
2018-02-07T01:47:10.088Z,0.00
2018-02-07T01:48:31.103Z,0.00
2018-02-07T01:49:31.065Z,0.00
2018-02-07T01:50:10.053Z,0.00
2018-02-07T01:51:10.042Z,0.00
2018-02-07T01:52:10.044Z,0.00
2018-02-07T01:53:31.048Z,0.00
2018-02-07T01:54:31.032Z,0.00
2018-02-07T01:55:09.999Z,0.00
2018-02-07T01:56:09.997Z,0.00
2018-02-07T01:57:09.973Z,0.00
2018-02-07T01:58:30.975Z,0.00
2018-02-07T01:59:30.963Z,0.00
2018-02-07T02:00:09.945Z,0.00
2018-02-07T02:01:09.930Z,0.00
2018-02-07T02:02:09.924Z,0.00
2018-02-07T02:03:30.955Z,0.00
2018-02-07T02:04:30.938Z,0.00
2018-02-07T02:05:09.885Z,0.00
2018-02-07T02:06:09.875Z,0.00
2018-02-07T02:07:09.868Z,0.00
2018-02-07T02:08:30.861Z,0.00
2018-02-07T02:09:30.848Z,0.00
2018-02-07T02:10:09.833Z,0.00
2018-02-07T02:11:09.854Z,0.00
2018-02-07T02:12:09.810Z,0.00
2018-02-07T02:13:30.809Z,0.00
2018-02-07T02:14:30.820Z,0.00
2018-02-07T02:15:09.777Z,0.00
2018-02-07T02:16:09.766Z,0.00
2018-02-07T02:17:09.758Z,0.00
2018-02-07T02:18:31.299Z,0.00
2018-02-07T02:19:30.741Z,0.00
2018-02-07T02:20:09.722Z,0.00
2018-02-07T02:21:09.714Z,0.00
2018-02-07T02:22:09.703Z,0.00
2018-02-07T02:23:30.697Z,0.00
2018-02-07T02:24:30.684Z,0.00
2018-02-07T02:25:09.670Z,0.00
2018-02-07T02:26:09.672Z,0.00
2018-02-07T02:27:09.646Z,0.00
2018-02-07T02:28:30.643Z,0.00
2018-02-07T02:29:30.650Z,0.00
2018-02-07T02:30:09.616Z,0.00
2018-02-07T02:31:09.602Z,0.00
2018-02-07T02:32:09.593Z,0.00
2018-02-07T02:33:30.588Z,0.00
2018-02-07T02:34:30.574Z,0.00
2018-02-07T02:35:09.557Z,0.00
2018-02-07T02:36:09.553Z,0.00
2018-02-07T02:37:09.537Z,0.00
2018-02-07T02:38:30.540Z,0.00
2018-02-07T02:39:30.521Z,0.00
2018-02-07T02:40:09.501Z,0.00
2018-02-07T02:41:09.523Z,0.00
2018-02-07T02:42:09.483Z,0.00
2018-02-07T02:43:30.478Z,0.00
2018-02-07T02:44:30.496Z,0.00
2018-02-07T02:45:09.446Z,0.00
2018-02-07T02:46:09.446Z,0.00
2018-02-07T02:47:09.427Z,0.00
2018-02-07T02:48:30.427Z,0.00
2018-02-07T02:49:30.408Z,0.00
2018-02-07T02:50:09.392Z,0.00
2018-02-07T02:51:09.386Z,0.00
2018-02-07T02:52:09.374Z,0.00
2018-02-07T02:53:30.374Z,0.00
2018-02-07T02:54:30.352Z,0.00
2018-02-07T02:55:09.339Z,0.00
2018-02-07T02:56:09.354Z,0.00
2018-02-07T02:57:09.316Z,0.00
2018-02-07T02:58:30.310Z,0.00
2018-02-07T02:59:30.309Z,0.00
2018-02-07T03:00:09.288Z,0.00
2018-02-07T03:01:09.320Z,0.00
2018-02-07T03:02:09.260Z,0.00
2018-02-07T03:03:30.267Z,0.00
2018-02-07T03:04:30.247Z,0.00
2018-02-07T03:05:09.228Z,0.00
2018-02-07T03:06:09.218Z,0.00
2018-02-07T03:07:09.204Z,0.00
2018-02-07T03:08:30.201Z,0.00
2018-02-07T03:09:30.190Z,0.00
2018-02-07T03:10:09.175Z,0.00
2018-02-07T03:11:09.162Z,0.00
2018-02-07T03:12:09.157Z,0.00
2018-02-07T03:13:30.149Z,0.00
2018-02-07T03:14:30.136Z,0.00
2018-02-07T03:15:09.121Z,0.00
2018-02-07T03:16:09.110Z,0.00
2018-02-07T03:17:09.102Z,0.00
2018-02-07T03:18:30.093Z,0.00
2018-02-07T03:19:30.086Z,0.00
2018-02-07T03:20:09.068Z,0.00
2018-02-07T03:21:09.056Z,0.00
2018-02-07T03:22:09.048Z,0.00
2018-02-07T03:23:30.041Z,0.00
2018-02-07T03:24:30.029Z,0.00
2018-02-07T03:25:09.013Z,0.00
2018-02-07T03:26:09.001Z,0.00
2018-02-07T03:27:08.991Z,0.00
2018-02-07T03:28:29.985Z,0.00
2018-02-07T03:29:29.970Z,0.00
2018-02-07T03:30:08.958Z,0.00
2018-02-07T03:31:08.949Z,0.00
2018-02-07T03:32:08.934Z,0.00
2018-02-07T03:33:29.957Z,0.00
2018-02-07T03:34:29.921Z,0.00
2018-02-07T03:35:08.904Z,0.00
2018-02-07T03:36:08.889Z,0.00
2018-02-07T03:37:08.880Z,0.00
2018-02-07T03:38:29.872Z,0.00
2018-02-07T03:39:29.864Z,0.00
2018-02-07T03:40:08.848Z,0.00
2018-02-07T03:41:08.836Z,0.00
2018-02-07T03:42:08.819Z,0.00
2018-02-07T03:43:29.824Z,0.00
2018-02-07T03:44:29.809Z,0.00
2018-02-07T03:45:08.794Z,0.00
2018-02-07T03:46:08.777Z,0.00
2018-02-07T03:47:08.813Z,0.00
2018-02-07T03:48:29.765Z,0.00
2018-02-07T03:49:29.749Z,0.00
2018-02-07T03:50:08.733Z,0.00
2018-02-07T03:51:08.724Z,0.00
2018-02-07T03:52:08.714Z,0.00
2018-02-07T03:53:29.710Z,0.00
2018-02-07T03:54:29.699Z,0.00
2018-02-07T03:55:08.706Z,0.00
2018-02-07T03:56:08.667Z,0.00
2018-02-07T03:57:08.659Z,0.00
2018-02-07T03:58:29.656Z,0.00
2018-02-07T03:59:29.634Z,0.00
2018-02-07T04:00:08.621Z,0.00
2018-02-07T04:01:08.613Z,0.00
2018-02-07T04:02:08.598Z,0.00
2018-02-07T04:03:29.590Z,0.00
2018-02-07T04:04:29.588Z,0.00
2018-02-07T04:05:08.564Z,0.00
2018-02-07T04:06:08.551Z,0.00
2018-02-07T04:07:08.548Z,0.00
2018-02-07T04:08:29.536Z,0.00
2018-02-07T04:09:29.529Z,0.00
2018-02-07T04:10:08.529Z,0.00
2018-02-07T04:11:08.497Z,0.00
2018-02-07T04:12:08.485Z,0.00
2018-02-07T04:13:29.522Z,0.00
2018-02-07T04:14:29.470Z,0.00
2018-02-07T04:15:08.459Z,0.00
2018-02-07T04:16:08.441Z,0.00
2018-02-07T04:17:08.427Z,0.00
2018-02-07T04:18:29.423Z,0.00
2018-02-07T04:19:29.414Z,0.00
2018-02-07T04:20:08.399Z,0.00
2018-02-07T04:21:08.400Z,0.00
2018-02-07T04:22:08.376Z,0.00
2018-02-07T04:23:29.369Z,0.00
2018-02-07T04:24:29.359Z,0.00
2018-02-07T04:25:08.383Z,0.00
2018-02-07T04:26:08.330Z,0.00
2018-02-07T04:27:08.319Z,0.00
2018-02-07T04:28:29.338Z,0.00
2018-02-07T04:29:29.299Z,0.00
2018-02-07T04:30:08.285Z,0.00
2018-02-07T04:31:08.272Z,0.00
2018-02-07T04:32:08.286Z,0.00
2018-02-07T04:33:29.265Z,0.00
2018-02-07T04:34:29.244Z,0.00
2018-02-07T04:35:08.238Z,0.00
2018-02-07T04:36:08.237Z,0.00
2018-02-07T04:37:08.214Z,0.00
2018-02-07T04:38:29.199Z,0.00
2018-02-07T04:39:29.191Z,0.00
2018-02-07T04:40:08.171Z,0.00
2018-02-07T04:41:08.191Z,0.00
2018-02-07T04:42:08.150Z,0.00
2018-02-07T04:43:29.151Z,0.00
2018-02-07T04:44:29.132Z,0.00
2018-02-07T04:45:08.118Z,0.00
2018-02-07T04:46:08.115Z,0.00
2018-02-07T04:47:08.125Z,0.00
2018-02-07T04:48:29.087Z,0.00
2018-02-07T04:49:29.080Z,0.00
2018-02-07T04:50:08.064Z,0.00
2018-02-07T04:51:08.053Z,0.00
2018-02-07T04:52:08.059Z,0.00
2018-02-07T04:53:29.033Z,0.00
2018-02-07T04:54:29.020Z,0.00
2018-02-07T04:55:08.008Z,0.00
2018-02-07T04:56:07.998Z,0.00
2018-02-07T04:57:08.014Z,0.00
2018-02-07T04:58:28.973Z,0.00
2018-02-07T04:59:28.962Z,0.00
2018-02-07T05:00:07.948Z,0.00
2018-02-07T05:01:07.947Z,0.00
2018-02-07T05:02:07.938Z,0.00
2018-02-07T05:03:29.873Z,0.00
2018-02-07T05:04:28.907Z,0.00
2018-02-07T05:05:07.893Z,0.00
2018-02-07T05:06:07.880Z,0.00
2018-02-07T05:07:07.868Z,0.00
2018-02-07T05:08:28.877Z,0.00
2018-02-07T05:09:28.857Z,0.00
2018-02-07T05:10:07.849Z,0.00
2018-02-07T05:11:07.826Z,0.00
2018-02-07T05:12:07.810Z,0.00
2018-02-07T05:13:28.801Z,0.00
2018-02-07T05:14:28.793Z,0.00
2018-02-07T05:15:07.784Z,0.00
2018-02-07T05:16:07.771Z,0.00
2018-02-07T05:17:07.788Z,0.00
2018-02-07T05:18:28.745Z,0.00
2018-02-07T05:19:28.735Z,0.00
2018-02-07T05:20:07.730Z,0.00
2018-02-07T05:21:07.713Z,0.00
2018-02-07T05:22:08.282Z,0.00
2018-02-07T05:23:28.694Z,0.00
2018-02-07T05:24:28.681Z,0.00
2018-02-07T05:25:07.661Z,0.00
2018-02-07T05:26:07.652Z,0.00
2018-02-07T05:27:07.643Z,0.00
2018-02-07T05:28:28.634Z,0.00
2018-02-07T05:29:28.632Z,0.00
2018-02-07T05:30:07.608Z,0.00
2018-02-07T05:31:07.597Z,0.00
2018-02-07T05:32:07.589Z,0.00
2018-02-07T05:33:28.583Z,0.00
2018-02-07T05:34:28.569Z,0.00
2018-02-07T05:35:07.567Z,0.00
2018-02-07T05:36:07.542Z,0.00
2018-02-07T05:37:07.532Z,0.00
2018-02-07T05:38:28.522Z,0.00
2018-02-07T05:39:28.516Z,0.00
2018-02-07T05:40:07.494Z,0.00
2018-02-07T05:41:07.485Z,0.00
2018-02-07T05:42:07.472Z,0.00
2018-02-07T05:43:28.463Z,0.00
2018-02-07T05:44:28.453Z,0.00
2018-02-07T05:45:07.433Z,0.00
2018-02-07T05:46:07.424Z,0.00
2018-02-07T05:47:07.426Z,0.00
2018-02-07T05:48:28.410Z,0.00
2018-02-07T05:49:28.400Z,0.00
2018-02-07T05:50:07.378Z,0.00
2018-02-07T05:51:07.372Z,0.00
2018-02-07T05:52:07.363Z,0.00
2018-02-07T05:53:28.351Z,0.00
2018-02-07T05:54:28.343Z,0.00
2018-02-07T05:55:07.328Z,0.00
2018-02-07T05:56:07.317Z,0.00
2018-02-07T05:57:07.301Z,0.00
2018-02-07T05:58:28.300Z,0.00
2018-02-07T05:59:28.286Z,0.00
2018-02-07T06:00:07.268Z,0.00
2018-02-07T06:01:07.278Z,0.00
2018-02-07T06:02:07.242Z,0.00
2018-02-07T06:03:28.239Z,0.00
2018-02-07T06:04:28.257Z,0.00
2018-02-07T06:05:07.211Z,0.00
2018-02-07T06:06:07.200Z,0.00
2018-02-07T06:07:07.187Z,0.00
2018-02-07T06:08:28.190Z,0.00
2018-02-07T06:09:28.170Z,0.00
2018-02-07T06:10:07.163Z,0.00
2018-02-07T06:11:07.139Z,0.00
2018-02-07T06:12:07.129Z,0.00
2018-02-07T06:13:28.120Z,0.00
2018-02-07T06:14:28.115Z,0.00
2018-02-07T06:15:07.092Z,0.00
2018-02-07T06:16:07.122Z,0.00
2018-02-07T06:17:07.084Z,0.00
2018-02-07T06:18:28.086Z,0.00
2018-02-07T06:19:28.135Z,0.00
2018-02-07T06:20:07.036Z,0.00
2018-02-07T06:21:07.027Z,0.00
2018-02-07T06:22:07.828Z,0.00
2018-02-07T06:23:28.023Z,0.00
2018-02-07T06:24:27.990Z,0.00
2018-02-07T06:25:06.973Z,0.00
2018-02-07T06:26:06.966Z,0.00
2018-02-07T06:27:06.955Z,0.00
2018-02-07T06:28:27.957Z,0.00
2018-02-07T06:29:27.933Z,0.00
2018-02-07T06:30:06.918Z,0.00
2018-02-07T06:31:06.924Z,0.00
2018-02-07T06:32:06.897Z,0.00
2018-02-07T06:33:27.906Z,0.00
2018-02-07T06:34:27.948Z,0.00
2018-02-07T06:35:06.859Z,0.00
2018-02-07T06:36:06.851Z,0.00
2018-02-07T06:37:06.838Z,0.00
2018-02-07T06:38:27.831Z,0.00
2018-02-07T06:39:27.821Z,0.00
2018-02-07T06:40:06.802Z,0.00
2018-02-07T06:41:06.793Z,0.00
2018-02-07T06:42:06.779Z,0.00
2018-02-07T06:43:28.373Z,0.00
2018-02-07T06:45:07.029Z,0.00
2018-02-07T06:46:07.042Z,0.00
2018-02-07T06:47:06.719Z,0.00
2018-02-07T06:48:27.714Z,5.63
2018-02-07T06:49:27.757Z,5.63
2018-02-07T06:50:06.689Z,5.63
2018-02-07T06:51:06.676Z,5.63
2018-02-07T06:52:06.666Z,5.63
2018-02-07T06:53:27.655Z,5.63
2018-02-07T06:54:27.640Z,5.63
2018-02-07T06:55:06.700Z,5.63
2018-02-07T06:56:06.627Z,11.25
2018-02-07T06:57:06.678Z,11.25
2018-02-07T06:58:27.697Z,11.25
2018-02-07T06:59:27.585Z,11.25
2018-02-07T07:00:06.728Z,11.25
2018-02-07T07:01:06.680Z,11.25
2018-02-07T07:02:06.794Z,11.25
2018-02-07T07:03:27.759Z,16.88
2018-02-07T07:04:27.623Z,16.88
2018-02-07T07:05:06.547Z,16.88
2018-02-07T07:06:06.560Z,16.88
2018-02-07T07:07:06.581Z,16.88
2018-02-07T07:08:27.926Z,22.50
2018-02-07T07:09:28.329Z,22.50
2018-02-07T07:10:06.527Z,22.50
2018-02-07T07:11:06.604Z,22.50
2018-02-07T07:12:06.563Z,22.50
2018-02-07T07:13:27.498Z,28.13
2018-02-07T07:14:27.509Z,28.13
2018-02-07T07:15:06.471Z,28.13
2018-02-07T07:16:06.499Z,28.13
2018-02-07T07:17:06.394Z,33.75
2018-02-07T07:18:27.362Z,33.75
2018-02-07T07:19:27.464Z,33.75
2018-02-07T07:20:06.447Z,33.75
2018-02-07T07:21:06.467Z,33.75
2018-02-07T07:22:06.618Z,39.38
2018-02-07T07:23:27.350Z,39.38
2018-02-07T07:24:27.442Z,39.38
2018-02-07T07:25:06.275Z,45.00
2018-02-07T07:26:06.408Z,45.00
2018-02-07T07:27:06.300Z,45.00
2018-02-07T07:28:27.245Z,50.63
2018-02-07T07:29:27.286Z,50.63
2018-02-07T07:30:06.282Z,50.63
2018-02-07T07:31:06.204Z,50.63
2018-02-07T07:32:06.198Z,56.25
2018-02-07T07:33:27.209Z,56.25
2018-02-07T07:34:27.177Z,56.25
2018-02-07T07:35:06.159Z,56.25
2018-02-07T07:36:06.149Z,61.88
2018-02-07T07:37:06.136Z,61.88
2018-02-07T07:38:27.128Z,61.88
2018-02-07T07:39:27.118Z,61.88
2018-02-07T07:40:06.106Z,67.50
2018-02-07T07:41:06.091Z,67.50
2018-02-07T07:42:06.075Z,67.50
2018-02-07T07:43:27.070Z,67.50
2018-02-07T07:44:27.054Z,73.13
2018-02-07T07:45:06.060Z,73.13
2018-02-07T07:46:06.034Z,73.13
2018-02-07T07:47:06.030Z,73.13
2018-02-07T07:48:27.024Z,73.13
2018-02-07T07:49:26.998Z,78.75
2018-02-07T07:50:05.985Z,78.75
2018-02-07T07:51:05.980Z,78.75
2018-02-07T07:52:05.966Z,78.75
2018-02-07T07:53:26.949Z,78.75
2018-02-07T07:54:26.941Z,84.38
2018-02-07T07:55:05.926Z,84.38
2018-02-07T07:56:05.916Z,84.38
2018-02-07T07:57:05.947Z,84.38
2018-02-07T07:58:26.900Z,84.38
2018-02-07T07:59:26.888Z,84.38
2018-02-07T08:00:05.910Z,90.00
2018-02-07T08:01:05.903Z,90.00
2018-02-07T08:02:05.860Z,90.00
2018-02-07T08:03:26.865Z,90.00
2018-02-07T08:04:26.828Z,90.00
2018-02-07T08:05:05.816Z,95.63
2018-02-07T08:06:05.795Z,95.63
2018-02-07T08:07:05.828Z,95.63
2018-02-07T08:08:26.780Z,95.63
2018-02-07T08:09:26.768Z,101.25
2018-02-07T08:10:05.755Z,101.25
2018-02-07T08:11:05.746Z,101.25
2018-02-07T08:12:05.767Z,101.25
2018-02-07T08:13:26.724Z,101.25
2018-02-07T08:14:26.710Z,101.25
2018-02-07T08:15:05.738Z,106.88
2018-02-07T08:16:05.684Z,106.88
2018-02-07T08:17:05.673Z,106.88
2018-02-07T08:18:26.692Z,106.88
2018-02-07T08:19:26.657Z,106.88
2018-02-07T08:20:05.641Z,106.88
2018-02-07T08:21:05.635Z,112.50
2018-02-07T08:22:05.639Z,112.50
2018-02-07T08:23:26.609Z,112.50
2018-02-07T08:24:26.626Z,112.50
2018-02-07T08:25:05.575Z,112.50
2018-02-07T08:26:05.570Z,112.50
2018-02-07T08:27:05.561Z,118.13
2018-02-07T08:28:26.549Z,118.13
2018-02-07T08:29:26.539Z,118.13
2018-02-07T08:30:05.520Z,118.13
2018-02-07T08:31:05.514Z,118.13
2018-02-07T08:32:05.499Z,118.13
2018-02-07T08:33:26.491Z,118.13
2018-02-07T08:34:26.482Z,123.75
2018-02-07T08:35:05.464Z,123.75
2018-02-07T08:36:05.454Z,123.75
2018-02-07T08:37:05.461Z,123.75
2018-02-07T08:38:26.435Z,123.75
2018-02-07T08:39:26.428Z,123.75
2018-02-07T08:40:05.411Z,123.75
2018-02-07T08:41:05.396Z,123.75
2018-02-07T08:42:05.386Z,123.75
2018-02-07T08:43:26.382Z,123.75
2018-02-07T08:44:26.369Z,123.75
2018-02-07T08:45:05.352Z,123.75
2018-02-07T08:46:05.340Z,123.75
2018-02-07T08:47:05.326Z,123.75
2018-02-07T08:48:26.322Z,129.38
2018-02-07T08:49:26.313Z,129.38
2018-02-07T08:50:05.299Z,129.38
2018-02-07T08:51:05.283Z,129.38
2018-02-07T08:52:05.296Z,129.38
2018-02-07T08:53:26.265Z,129.38
2018-02-07T08:54:26.260Z,129.38
2018-02-07T08:55:05.332Z,135.00
2018-02-07T08:56:05.230Z,135.00
2018-02-07T08:57:05.224Z,135.00
2018-02-07T08:58:26.207Z,135.00
2018-02-07T08:59:26.200Z,135.00
2018-02-07T09:00:05.187Z,135.00
2018-02-07T09:01:05.171Z,140.63
2018-02-07T09:02:05.159Z,140.63
2018-02-07T09:03:26.157Z,140.63
2018-02-07T09:04:26.151Z,140.63
2018-02-07T09:05:05.128Z,140.63
2018-02-07T09:06:05.153Z,140.63
2018-02-07T09:07:05.153Z,140.63
2018-02-07T09:08:26.113Z,140.63
2018-02-07T09:09:26.086Z,140.63
2018-02-07T09:10:05.073Z,140.63
2018-02-07T09:11:05.071Z,140.63
2018-02-07T09:12:05.048Z,146.25
2018-02-07T09:13:26.055Z,146.25
2018-02-07T09:14:26.052Z,146.25
2018-02-07T09:15:05.015Z,146.25
2018-02-07T09:16:05.009Z,146.25
2018-02-07T09:17:05.001Z,146.25
2018-02-07T09:18:25.988Z,146.25
2018-02-07T09:19:25.996Z,146.25
2018-02-07T09:20:05.037Z,146.25
2018-02-07T09:21:05.033Z,151.88
2018-02-07T09:22:05.197Z,151.88
2018-02-07T09:23:25.977Z,151.88
2018-02-07T09:24:26.214Z,151.88
2018-02-07T09:25:04.916Z,151.88
2018-02-07T09:26:04.898Z,151.88
2018-02-07T09:27:04.889Z,151.88
2018-02-07T09:28:25.885Z,157.50
2018-02-07T09:29:25.873Z,157.50
2018-02-07T09:30:04.853Z,157.50
2018-02-07T09:31:04.848Z,157.50
2018-02-07T09:32:04.830Z,157.50
2018-02-07T09:33:25.837Z,157.50
2018-02-07T09:34:25.884Z,157.50
2018-02-07T09:35:04.967Z,157.50
2018-02-07T09:36:04.977Z,157.50
2018-02-07T09:37:04.942Z,163.13
2018-02-07T09:38:25.770Z,163.13
2018-02-07T09:39:25.766Z,163.13
2018-02-07T09:40:04.753Z,163.13
2018-02-07T09:41:04.741Z,163.13
2018-02-07T09:42:04.725Z,163.13
2018-02-07T09:43:25.720Z,168.75
2018-02-07T09:44:25.710Z,168.75
2018-02-07T09:45:04.698Z,168.75
2018-02-07T09:46:04.687Z,168.75
2018-02-07T09:47:04.678Z,168.75
2018-02-07T09:48:25.671Z,174.38
2018-02-07T09:49:25.654Z,174.38
2018-02-07T09:50:04.641Z,174.38
2018-02-07T09:51:04.651Z,174.38
2018-02-07T09:52:04.624Z,174.38
2018-02-07T09:53:25.617Z,174.38
2018-02-07T09:54:25.795Z,180.00
2018-02-07T09:55:04.592Z,185.63
2018-02-07T09:56:04.583Z,180.00
2018-02-07T09:57:04.591Z,180.00
2018-02-07T09:58:25.617Z,185.63
2018-02-07T09:59:25.556Z,180.00
2018-02-07T10:00:04.544Z,180.00
2018-02-07T10:01:04.532Z,180.00
2018-02-07T10:02:04.522Z,180.00
2018-02-07T10:03:25.513Z,185.63
2018-02-07T10:04:25.652Z,185.63
2018-02-07T10:05:04.489Z,185.63
2018-02-07T10:06:04.486Z,185.63
2018-02-07T10:07:04.468Z,185.63
2018-02-07T10:08:25.465Z,191.25
2018-02-07T10:09:25.475Z,191.25
2018-02-07T10:10:04.439Z,191.25
2018-02-07T10:11:04.431Z,191.25
2018-02-07T10:12:04.424Z,191.25
2018-02-07T10:13:25.414Z,191.25
2018-02-07T10:14:25.417Z,196.88
2018-02-07T10:15:04.390Z,196.88
2018-02-07T10:16:04.375Z,196.88
2018-02-07T10:17:04.371Z,196.88
2018-02-07T10:18:25.363Z,196.88
2018-02-07T10:19:25.348Z,196.88
2018-02-07T10:20:04.338Z,196.88
2018-02-07T10:21:04.372Z,196.88
2018-02-07T10:22:04.319Z,196.88
2018-02-07T10:23:25.313Z,196.88
2018-02-07T10:24:25.335Z,196.88
2018-02-07T10:25:04.286Z,196.88
2018-02-07T10:26:04.275Z,196.88
2018-02-07T10:27:04.266Z,196.88
2018-02-07T10:28:25.265Z,196.88
2018-02-07T10:29:25.250Z,196.88
2018-02-07T10:30:04.247Z,196.88
2018-02-07T10:31:04.228Z,196.88
2018-02-07T10:32:04.216Z,196.88
2018-02-07T10:33:25.214Z,196.88
2018-02-07T10:34:25.204Z,196.88
2018-02-07T10:35:04.189Z,196.88
2018-02-07T10:36:04.231Z,202.50
2018-02-07T10:37:04.171Z,196.88
2018-02-07T10:38:25.168Z,185.63
2018-02-07T10:39:25.181Z,174.38
2018-02-07T10:40:04.139Z,163.13
2018-02-07T10:41:04.138Z,157.50
2018-02-07T10:42:04.114Z,151.88
2018-02-07T10:43:25.118Z,146.25
2018-02-07T10:44:25.104Z,140.63
2018-02-07T10:45:04.084Z,135.00
2018-02-07T10:46:04.080Z,135.00
2018-02-07T10:47:04.070Z,129.38
2018-02-07T10:48:25.064Z,129.38
2018-02-07T10:49:25.105Z,129.38
2018-02-07T10:50:04.040Z,129.38
2018-02-07T10:51:04.046Z,129.38
2018-02-07T10:52:04.017Z,129.38
2018-02-07T10:53:25.014Z,135.00
2018-02-07T10:54:25.034Z,140.63
2018-02-07T10:55:03.989Z,146.25
2018-02-07T10:56:03.981Z,151.88
2018-02-07T10:57:03.973Z,163.13
2018-02-07T10:58:24.990Z,168.75
2018-02-07T10:59:24.958Z,180.00
2018-02-07T11:00:03.945Z,185.63
2018-02-07T11:01:03.929Z,191.25
2018-02-07T11:02:03.930Z,196.88
2018-02-07T11:03:24.919Z,202.50
2018-02-07T11:04:24.909Z,213.75
2018-02-07T11:05:03.893Z,225.00
2018-02-07T11:06:03.935Z,230.63
2018-02-07T11:07:03.883Z,236.25
2018-02-07T11:08:24.864Z,241.88
2018-02-07T11:09:24.872Z,247.50
2018-02-07T11:10:03.843Z,253.13
2018-02-07T11:11:03.834Z,258.75
2018-02-07T11:12:03.825Z,241.88
2018-02-07T11:13:24.850Z,236.25
2018-02-07T11:14:24.809Z,236.25
2018-02-07T11:15:03.797Z,247.50
2018-02-07T11:16:03.788Z,253.13
2018-02-07T11:17:03.784Z,253.13
2018-02-07T11:18:24.770Z,247.50
2018-02-07T11:19:24.761Z,247.50
2018-02-07T11:20:03.748Z,247.50
2018-02-07T11:21:03.781Z,247.50
2018-02-07T11:22:03.735Z,253.13
2018-02-07T11:23:24.723Z,258.75
2018-02-07T11:24:24.770Z,258.75
2018-02-07T11:25:03.714Z,264.38
2018-02-07T11:26:03.695Z,281.25
2018-02-07T11:27:03.685Z,298.13
2018-02-07T11:28:24.690Z,320.63
2018-02-07T11:29:24.677Z,337.50
2018-02-07T11:30:03.656Z,348.75
2018-02-07T11:31:03.774Z,354.38
2018-02-07T11:32:03.641Z,360.00
2018-02-07T11:33:24.644Z,376.88
2018-02-07T11:34:24.625Z,376.88
2018-02-07T11:35:03.611Z,382.50
2018-02-07T11:36:03.662Z,393.75
2018-02-07T11:37:03.675Z,405.00
2018-02-07T11:38:24.586Z,421.88
2018-02-07T11:39:24.605Z,427.50
2018-02-07T11:40:03.562Z,433.13
2018-02-07T11:41:03.554Z,438.75
2018-02-07T11:42:03.545Z,438.75
2018-02-07T11:43:24.539Z,438.75
2018-02-07T11:44:24.537Z,444.38
2018-02-07T11:45:03.514Z,444.38
2018-02-07T11:46:03.508Z,450.00
2018-02-07T11:47:03.519Z,450.00
2018-02-07T11:48:24.503Z,450.00
2018-02-07T11:49:24.483Z,455.63
2018-02-07T11:50:03.470Z,455.63
2018-02-07T11:51:03.499Z,461.25
2018-02-07T11:52:03.456Z,461.25
2018-02-07T11:53:24.454Z,472.50
2018-02-07T11:54:24.475Z,472.50
2018-02-07T11:55:03.429Z,478.13
2018-02-07T11:56:03.421Z,478.13
2018-02-07T11:57:03.412Z,483.75
2018-02-07T11:58:24.412Z,478.13
2018-02-07T11:59:24.403Z,478.13
2018-02-07T12:00:03.390Z,483.75
2018-02-07T12:01:03.374Z,483.75
2018-02-07T12:02:03.368Z,489.38
2018-02-07T12:03:24.495Z,489.38
2018-02-07T12:04:24.404Z,489.38
2018-02-07T12:05:03.337Z,495.00
2018-02-07T12:06:03.394Z,495.00
2018-02-07T12:07:03.340Z,495.00
2018-02-07T12:08:24.322Z,489.38
2018-02-07T12:09:24.335Z,489.38
2018-02-07T12:10:03.300Z,483.75
2018-02-07T12:11:03.306Z,478.13
2018-02-07T12:12:03.280Z,478.13
2018-02-07T12:13:24.277Z,472.50
2018-02-07T12:14:24.268Z,461.25
2018-02-07T12:15:03.259Z,461.25
2018-02-07T12:16:03.344Z,444.38
2018-02-07T12:17:03.266Z,438.75
2018-02-07T12:18:24.238Z,421.88
2018-02-07T12:19:24.231Z,410.63
2018-02-07T12:20:03.216Z,399.38
2018-02-07T12:21:03.235Z,382.50
2018-02-07T12:22:03.223Z,371.25
2018-02-07T12:23:24.266Z,360.00
2018-02-07T12:24:24.239Z,343.13
2018-02-07T12:25:03.179Z,337.50
2018-02-07T12:26:03.160Z,326.25
2018-02-07T12:27:03.153Z,320.63
2018-02-07T12:28:24.159Z,320.63
2018-02-07T12:29:24.144Z,303.75
2018-02-07T12:30:03.131Z,298.13
2018-02-07T12:31:03.123Z,292.50
2018-02-07T12:32:03.116Z,286.88
2018-02-07T12:33:24.115Z,281.25
2018-02-07T12:34:24.106Z,281.25
2018-02-07T12:35:03.094Z,281.25
2018-02-07T12:36:03.106Z,281.25
2018-02-07T12:37:03.075Z,286.88
2018-02-07T12:38:24.072Z,281.25
2018-02-07T12:39:24.071Z,281.25
2018-02-07T12:40:03.051Z,281.25
2018-02-07T12:41:03.039Z,286.88
2018-02-07T12:42:03.039Z,286.88
2018-02-07T12:43:24.035Z,286.88
2018-02-07T12:44:24.051Z,286.88
2018-02-07T12:45:03.072Z,298.13
2018-02-07T12:46:03.000Z,303.75
2018-02-07T12:47:02.988Z,309.38
2018-02-07T12:48:23.992Z,303.75
2018-02-07T12:49:24.011Z,309.38
2018-02-07T12:50:02.987Z,320.63
2018-02-07T12:51:02.991Z,326.25
2018-02-07T12:52:02.944Z,331.88
2018-02-07T12:53:23.946Z,337.50
2018-02-07T12:54:24.170Z,348.75
2018-02-07T12:55:02.924Z,360.00
2018-02-07T12:56:02.920Z,360.00
2018-02-07T12:57:02.901Z,365.63